Create Tblcommutelog Verified Points Advance Search
| # | Trip ID | Id Commuter | Trip Date | Trip Num | Current Lat | Current Lng | Delta Distance | Current Time | Activity | Activity Confidence | Current Speed | |
|---|---|---|---|---|---|---|---|---|---|---|---|---|
| 69581 | 260102_651912_16658387_1623 | 651912 | (not set) | (not set) | 39.266298517156 | -76.666456856412 | 1.504 | 2026-01-02 16:28:06 | still | 33 | 11.006106556278 | |
| 69582 | 260102_776287_16643813_1615 | 776287 | (not set) | (not set) | 38.871662439481 | -77.04207367582 | 1.8821 | 2026-01-02 16:28:59 | in_vehicle | 100 | 7.8500093878244 | |
| 69583 | 260102_783758_16651529_1555 | 783758 | (not set) | (not set) | 38.882461600042 | -77.110011493859 | 6.072 | 2026-01-02 16:30:06 | on_foot | 100 | 0.58115103668404 | |
| 69584 | 260102_651912_16658387_1623 | 651912 | (not set) | (not set) | 39.263542110781 | -76.708616765681 | 4.3134 | 2026-01-02 16:31:18 | in_vehicle | 100 | 9.8482748754996 | |
| 69585 | 260102_785997_16659848_1602 | 785997 | (not set) | (not set) | 38.958304544955 | -76.863915554306 | 9.5584 | 2026-01-02 16:32:35 | in_vehicle | 100 | 6.9872236179781 | |
| 69586 | 260102_651912_16658387_1623 | 651912 | (not set) | (not set) | 39.282884358741 | -76.732650693203 | 6.2314 | 2026-01-02 16:33:25 | in_vehicle | 100 | 10.91669870448 | |
| 69587 | 260102_779681_16647369_1624 | 779681 | (not set) | (not set) | 38.895327406702 | -77.005731270526 | 0.3542 | 2026-01-02 16:34:31 | on_foot | 100 | 0.59903260704355 | |
| 69588 | 260102_763194_16630042_1635 | 763194 | (not set) | (not set) | 39.287387831588 | -76.605678215794 | 0 | 2026-01-02 16:35:37 | unknown | 100 | -0.44703925898772 | |
| 69589 | 260102_727233_16590787_1633 | 727233 | (not set) | (not set) | 39.0331935 | -76.9809622 | 0.1325 | 2026-01-02 16:36:49 | walking | 100 | 0.32633865906104 | |
| 69590 | 260102_788537_16657182_1623 | 788537 | (not set) | (not set) | 39.294824999331 | -76.613826625905 | 1.1217 | 2026-01-02 16:37:44 | in_vehicle | 100 | 1.6808676137938 | |
| 69591 | 260102_783292_16651014_1604 | 783292 | (not set) | (not set) | 38.946749954329 | -76.87243464686 | 0 | 2026-01-02 16:39:01 | still | 100 | -0.44703925898772 | |
| 69592 | 260102_785997_16659848_1602 | 785997 | (not set) | (not set) | 39.029679032682 | -76.755460091685 | 17.2855 | 2026-01-02 16:39:30 | in_vehicle | 100 | 17.872629574329 | |
| 69593 | 260102_783292_16651014_1604 | 783292 | (not set) | (not set) | 38.939738182116 | -76.882130508808 | 0.9513 | 2026-01-02 16:40:07 | in_vehicle | 100 | 9.2581830536358 | |
| 69594 | 260102_763194_16630042_1635 | 763194 | (not set) | (not set) | 39.293605220751 | -76.609573205943 | 0.5016 | 2026-01-02 16:41:09 | on_bicycle | 100 | 2.8297585093923 | |
| 69595 | 260102_788537_16657182_1623 | 788537 | (not set) | (not set) | 39.300647622893 | -76.615876677013 | 1.5388 | 2026-01-02 16:42:10 | in_vehicle | 100 | -0.44703925898772 | |
| 69596 | 260102_783292_16651014_1604 | 783292 | (not set) | (not set) | 38.925584399593 | -76.899980621541 | 2.3277 | 2026-01-02 16:42:35 | on_bicycle | 100 | 14.180085295091 | |
| 69597 | 260102_783292_16651014_1604 | 783292 | (not set) | (not set) | 38.925584399593 | -76.899980621541 | 2.3277 | 2026-01-02 16:42:35 | on_bicycle | 100 | 14.180085295091 | |
| 69598 | 260102_783292_16651014_1604 | 783292 | (not set) | (not set) | 38.918231778354 | -76.911818958013 | 3.1496 | 2026-01-02 16:43:26 | in_vehicle | 100 | 9.4951138608993 | |
| 69599 | 260102_763194_16630042_1635 | 763194 | (not set) | (not set) | 39.300767897378 | -76.610276757118 | 1.0148 | 2026-01-02 16:44:29 | on_foot | 100 | 0.64373653294232 | |
| 69600 | 260102_783292_16651014_1604 | 783292 | (not set) | (not set) | 38.915092099216 | -76.920834484073 | 3.6825 | 2026-01-02 16:45:10 | in_vehicle | 100 | 9.3118277647143 |